createdAt,value
2023-02-05T00:01:35.184Z,7.22
2023-02-05T00:11:35.064Z,5.69
2023-02-05T00:21:35.024Z,5.88
2023-02-05T00:31:35.629Z,7.96
2023-02-05T00:41:36.554Z,9.47
2023-02-05T00:51:37.034Z,6.24
2023-02-05T01:01:37.163Z,6.90
2023-02-05T01:11:37.340Z,8.50
2023-02-05T01:21:37.276Z,9.63
2023-02-05T01:31:37.279Z,5.47
2023-02-05T01:41:37.211Z,7.74
2023-02-05T01:51:37.164Z,7.93
2023-02-05T02:01:37.145Z,5.57
2023-02-05T02:11:37.543Z,6.69
2023-02-05T02:21:38.436Z,7.35
2023-02-05T02:31:38.180Z,6.02
2023-02-05T02:41:38.332Z,7.90
2023-02-05T02:51:38.480Z,5.73
2023-02-05T03:01:39.037Z,5.92
2023-02-05T03:11:40.954Z,9.39
2023-02-05T03:21:41.312Z,6.76
2023-02-05T03:31:53.039Z,3.94
2023-02-05T03:41:58.322Z,6.10
2023-02-05T03:51:58.927Z,6.47
2023-02-05T04:02:01.233Z,6.29
2023-02-05T04:12:02.065Z,7.87
2023-02-05T04:22:04.189Z,6.65
2023-02-05T04:32:04.406Z,5.52
2023-02-05T04:42:04.378Z,7.30
2023-02-05T04:52:04.389Z,8.79
2023-02-05T05:02:04.497Z,11.30
2023-02-05T05:12:04.384Z,8.77
2023-02-05T05:22:04.366Z,7.08
2023-02-05T05:32:04.548Z,6.61
2023-02-05T05:42:22.808Z,7.63
2023-02-05T05:52:23.558Z,9.47
2023-02-05T06:02:23.447Z,8.35
2023-02-05T06:12:23.526Z,8.62
2023-02-05T06:22:23.490Z,8.16
2023-02-05T06:32:26.460Z,10.56
2023-02-05T06:42:25.635Z,12.03
2023-02-05T06:52:25.520Z,11.47
2023-02-05T07:02:25.561Z,11.00
2023-02-05T07:12:25.497Z,10.44
2023-02-05T07:22:25.622Z,14.11
2023-02-05T07:32:25.501Z,7.65
2023-02-05T07:42:27.399Z,12.99
2023-02-05T07:52:27.674Z,10.67
2023-02-05T08:02:27.602Z,10.49
2023-02-05T08:12:27.592Z,6.53
2023-02-05T08:22:27.621Z,6.99
2023-02-05T08:32:27.604Z,5.60
2023-02-05T08:42:27.721Z,9.73
2023-02-05T08:52:27.725Z,7.07
2023-02-05T09:02:29.959Z,3.48
2023-02-05T09:12:29.732Z,3.03
2023-02-05T09:22:29.706Z,0.46
2023-02-05T09:32:29.725Z,0.83
2023-02-05T09:42:29.165Z,3.60
2023-02-05T09:52:29.814Z,1.20
2023-02-05T10:02:31.203Z,0.46
2023-02-05T10:12:31.682Z,1.49
2023-02-05T10:22:31.899Z,1.39
2023-02-05T10:32:31.765Z,2.59
2023-02-05T10:42:32.560Z,1.11
2023-02-05T10:52:32.889Z,1.66
2023-02-05T11:02:32.917Z,1.85
2023-02-05T11:12:33.333Z,1.94
2023-02-05T11:22:34.799Z,1.30
2023-02-05T11:32:35.543Z,1.29
2023-02-05T11:42:35.888Z,1.30
2023-02-05T11:52:36.982Z,0.83
2023-02-05T12:02:37.040Z,0.74
2023-02-05T12:12:36.936Z,0.83
2023-02-05T12:22:37.016Z,0.09
2023-02-05T12:32:36.927Z,1.19
2023-02-05T12:42:36.973Z,0.92
2023-02-05T12:52:37.041Z,0.91
2023-02-05T13:02:36.946Z,0.27
2023-02-05T13:12:36.956Z,0.73
2023-02-05T13:22:55.380Z,1.82
2023-02-05T13:32:56.306Z,0.09
2023-02-05T13:42:56.003Z,1.27
2023-02-05T13:52:56.070Z,3.00
2023-02-05T14:02:55.988Z,1.45
2023-02-05T14:12:56.032Z,0.91
2023-02-05T14:22:57.435Z,1.81
2023-02-05T14:32:58.078Z,1.82
2023-02-05T14:43:09.653Z,0.09
2023-02-05T14:53:00.249Z,2.38
2023-02-05T15:03:00.166Z,0.09
2023-02-05T15:13:00.103Z,1.10
2023-02-05T15:23:00.179Z,0.65
2023-02-05T15:33:00.150Z,0.92
2023-02-05T15:43:00.223Z,1.48
2023-02-05T15:53:00.241Z,1.76
2023-02-05T16:03:00.241Z,0.46
2023-02-05T16:13:00.272Z,0.65
2023-02-05T16:23:00.389Z,1.48
2023-02-05T16:33:00.327Z,0.92
2023-02-05T16:43:00.254Z,1.57
2023-02-05T16:53:00.396Z,2.22
2023-02-05T17:03:00.366Z,1.57
2023-02-05T17:13:02.713Z,1.38
2023-02-05T17:23:03.268Z,1.84
2023-02-05T17:33:04.848Z,4.31
2023-02-05T17:43:05.263Z,1.28
2023-02-05T17:53:05.423Z,2.11
2023-02-05T18:03:05.350Z,0.55
2023-02-05T18:13:05.448Z,1.74
2023-02-05T18:23:05.494Z,1.93
2023-02-05T18:33:06.378Z,1.38
2023-02-05T18:43:06.411Z,0.65
2023-02-05T18:53:06.629Z,1.11
2023-02-05T19:03:06.490Z,2.50
2023-02-05T19:13:06.475Z,1.85
2023-02-05T19:23:06.360Z,0.74
2023-02-05T19:33:06.414Z,0.74
2023-02-05T19:43:06.561Z,2.33
2023-02-05T19:53:06.407Z,0.84
2023-02-05T20:03:06.445Z,1.40
2023-02-05T20:13:07.090Z,1.68
2023-02-05T20:23:07.837Z,0.66
2023-02-05T20:33:08.498Z,0.19
2023-02-05T20:43:08.745Z,0.94
2023-02-05T20:53:08.463Z,2.44
2023-02-05T21:03:08.546Z,0.94
2023-02-05T21:13:08.490Z,1.21
2023-02-05T21:23:08.516Z,1.21
2023-02-05T21:33:08.610Z,1.40
2023-02-05T21:43:08.606Z,0.93
2023-02-05T21:53:08.669Z,2.97
2023-02-05T22:03:08.883Z,0.56
2023-02-05T22:13:08.556Z,0.83
2023-02-05T22:23:08.578Z,0.83
2023-02-05T22:33:08.832Z,1.20
2023-02-05T22:43:08.599Z,0.83
2023-02-05T22:53:08.603Z,2.03
2023-02-05T23:03:08.647Z,1.01
2023-02-05T23:13:08.616Z,1.38
2023-02-05T23:23:08.662Z,0.46
2023-02-05T23:33:08.631Z,0.64
2023-02-05T23:43:08.679Z,2.65
2023-02-05T23:53:08.684Z,2.19
